Time;durP1;ratioP1;P1;durP2;ratioP2;P2;SDS_P1;SDS_P2;PMS_P1;PMS_P2;Temp;Humidity;BMP_temperature;BMP_pressure;BME280_temperature;BME280_humidity;BME280_pressure;Samples;Min_cycle;Max_cycle;Signal;HPM_P1;HPM_P2
2023/01/08 00:00:13;;;;;;;2.47;2.00;;;;;;;9.45;73.64;99815.41;5043206;28;20226;-83
2023/01/08 00:02:39;;;;;;;2.50;2.10;;;;;;;9.45;73.93;99824.22;5044541;28;20212;-86
2023/01/08 00:05:07;;;;;;;3.27;2.20;;;;;;;9.49;74.03;99828.38;5044672;28;20210;-86
2023/01/08 00:07:33;;;;;;;2.97;2.20;;;;;;;9.48;74.45;99820.50;5046281;28;20198;-84
2023/01/08 00:10:01;;;;;;;4.13;2.10;;;;;;;9.43;74.47;99828.81;5046185;28;20237;-83
2023/01/08 00:12:28;;;;;;;3.10;2.03;;;;;;;9.44;74.94;99834.97;5045314;28;20204;-83
2023/01/08 00:14:54;;;;;;;1.70;1.60;;;;;;;9.42;75.23;99827.09;5046186;28;20608;-84
2023/01/08 00:17:20;;;;;;;4.13;2.07;;;;;;;9.44;74.86;99808.41;5046578;28;20237;-85
2023/01/08 00:19:47;;;;;;;2.97;2.20;;;;;;;9.42;74.86;99811.16;5044120;28;20630;-83
2023/01/08 00:22:13;;;;;;;3.13;2.30;;;;;;;9.42;74.97;99819.13;5043719;28;20210;-83
2023/01/08 00:24:40;;;;;;;1.90;1.70;;;;;;;9.42;75.35;99811.16;5047758;28;20221;-84
2023/01/08 00:27:08;;;;;;;3.23;2.30;;;;;;;9.42;75.29;99816.47;5051366;28;20217;-84
2023/01/08 00:29:36;;;;;;;2.97;1.83;;;;;;;9.42;75.25;99805.00;5047347;28;20783;-83
2023/01/08 00:32:03;;;;;;;4.20;2.27;;;;;;;9.41;75.45;99820.09;5043555;28;20241;-84
2023/01/08 00:34:29;;;;;;;3.57;2.20;;;;;;;9.40;75.62;99823.72;5045905;28;20229;-83
2023/01/08 00:36:55;;;;;;;2.30;1.87;;;;;;;9.40;75.48;99821.03;5047175;28;20209;-84
2023/01/08 00:39:22;;;;;;;2.90;2.07;;;;;;;9.38;75.64;99821.16;5045166;28;20221;-83
2023/01/08 00:41:49;;;;;;;4.30;2.00;;;;;;;9.39;75.11;99830.81;5045869;28;20605;-83
2023/01/08 00:44:16;;;;;;;3.13;2.40;;;;;;;9.38;75.23;99825.63;5050750;28;20284;-86
2023/01/08 00:46:43;;;;;;;4.43;2.30;;;;;;;9.38;75.21;99821.16;5049578;28;20678;-83
2023/01/08 00:49:10;;;;;;;3.83;2.37;;;;;;;9.37;75.45;99830.09;5039538;28;20232;-85
2023/01/08 00:51:36;;;;;;;4.60;2.47;;;;;;;9.36;75.56;99824.88;5046749;28;20201;-83
2023/01/08 00:54:03;;;;;;;2.10;1.90;;;;;;;9.34;75.22;99817.00;5041475;28;20237;-84
2023/01/08 00:56:29;;;;;;;3.07;2.37;;;;;;;9.33;75.46;99823.28;5042958;28;20759;-83
2023/01/08 00:58:56;;;;;;;4.17;2.70;;;;;;;9.31;75.60;99814.59;5043535;28;20222;-82
2023/01/08 01:01:23;;;;;;;2.93;2.40;;;;;;;9.30;75.63;99823.53;5043770;28;20598;-84
2023/01/08 01:03:50;;;;;;;3.30;2.47;;;;;;;9.29;76.01;99815.66;5043066;28;20576;-82
2023/01/08 01:06:16;;;;;;;4.03;2.50;;;;;;;9.26;75.82;99822.03;5048353;28;21296;-83
2023/01/08 01:08:43;;;;;;;3.00;2.70;;;;;;;9.27;75.89;99818.44;5045288;28;20209;-83
2023/01/08 01:11:13;;;;;;;4.20;2.57;;;;;;;9.26;76.41;99802.59;5045453;28;20212;-84
2023/01/08 01:13:40;;;;;;;2.40;1.97;;;;;;;9.27;76.53;99797.16;5045483;28;20242;-85
2023/01/08 01:16:08;;;;;;;3.20;2.33;;;;;;;9.28;76.67;99787.38;5046039;28;20369;-86
2023/01/08 01:18:36;;;;;;;3.07;2.10;;;;;;;9.26;76.53;99790.16;5043793;28;20566;-85
2023/01/08 01:21:02;;;;;;;2.43;1.87;;;;;;;9.28;76.66;99788.25;5047420;28;20581;-83
2023/01/08 01:23:29;;;;;;;2.83;2.30;;;;;;;9.29;77.00;99789.09;5045759;28;20209;-84
2023/01/08 01:25:55;;;;;;;2.63;2.33;;;;;;;9.30;76.98;99781.00;5039059;28;20837;-83
2023/01/08 01:28:21;;;;;;;3.10;2.27;;;;;;;9.31;76.77;99787.19;5046615;28;20206;-82
2023/01/08 01:30:54;;;;;;;3.67;3.03;;;;;;;9.29;77.39;99783.78;5042311;28;20225;-84
2023/01/08 01:33:20;;;;;;;3.17;2.30;;;;;;;9.26;76.89;99779.53;5043024;28;20249;-82
2023/01/08 01:35:48;;;;;;;4.13;2.10;;;;;;;9.27;77.14;99783.03;5048011;28;20676;-84
2023/01/08 01:38:15;;;;;;;3.10;2.43;;;;;;;9.31;76.83;99787.19;5047354;28;20212;-84
2023/01/08 01:40:41;;;;;;;2.90;2.20;;;;;;;9.30;76.87;99788.13;5047207;28;20233;-85
2023/01/08 01:43:12;;;;;;;3.63;2.37;;;;;;;9.33;77.31;99796.72;5049397;28;20212;-85
2023/01/08 01:45:39;;;;;;;2.70;2.10;;;;;;;9.34;76.81;99787.78;5053997;28;20283;-83
2023/01/08 01:48:10;;;;;;;3.53;2.50;;;;;;;9.36;77.14;99795.66;5049229;28;20202;-84
2023/01/08 01:50:39;;;;;;;3.10;2.20;;;;;;;9.36;77.49;99793.00;5046898;28;20854;-85
2023/01/08 01:53:11;;;;;;;2.40;2.17;;;;;;;9.36;77.47;99795.66;5052092;28;20208;-84
2023/01/08 01:55:40;;;;;;;3.20;2.57;;;;;;;9.38;77.07;99793.72;5045408;28;20230;-83
2023/01/08 01:58:13;;;;;;;2.77;2.30;;;;;;;9.42;77.42;99794.38;5045945;28;20209;-83
2023/01/08 02:00:39;;;;;;;2.60;2.40;;;;;;;9.42;77.16;99786.38;5047547;28;20228;-84
2023/01/08 02:03:06;;;;;;;3.80;2.37;;;;;;;9.42;77.19;99781.06;5041705;28;20202;-84
2023/01/08 02:05:39;;;;;;;3.17;2.60;;;;;;;9.43;76.93;99778.31;5050749;28;20198;-86
2023/01/08 02:08:12;;;;;;;3.37;1.97;;;;;;;9.48;77.28;99762.88;5047346;28;20214;-84
2023/01/08 02:10:47;;;;;;;3.07;2.20;;;;;;;9.49;77.03;99774.38;5051043;28;20229;-83
2023/01/08 02:13:20;;;;;;;3.03;2.30;;;;;;;9.49;76.66;99763.75;5045283;28;20194;-83
2023/01/08 02:15:55;;;;;;;3.30;2.47;;;;;;;9.48;76.90;99757.56;5043553;28;20226;-83
2023/01/08 02:18:29;;;;;;;2.43;2.10;;;;;;;9.49;76.99;99759.28;5050692;28;20249;-83
2023/01/08 02:21:01;;;;;;;3.67;2.63;;;;;;;9.52;76.93;99764.34;5050946;28;20684;-83
2023/01/08 02:23:36;;;;;;;4.00;2.30;;;;;;;9.53;76.88;99770.50;5048262;28;20202;-84
2023/01/08 02:26:17;;;;;;;2.87;2.20;;;;;;;9.50;76.47;99771.56;5048138;28;20205;-83
2023/01/08 02:28:49;;;;;;;3.93;2.43;;;;;;;9.49;77.08;99767.25;5045627;28;20205;-83
2023/01/08 02:31:16;;;;;;;2.80;2.20;;;;;;;9.48;76.78;99773.53;5047525;28;20209;-82
2023/01/08 02:33:42;;;;;;;3.73;1.77;;;;;;;9.53;76.83;99765.19;5046453;28;20679;-83
2023/01/08 02:36:37;;;;;;;3.00;2.40;;;;;;;9.50;76.94;99768.91;5048724;28;20233;-83
2023/01/08 02:39:30;;;;;;;2.43;2.23;;;;;;;9.51;77.19;99756.47;5027998;28;20733;-83
2023/01/08 02:42:08;;;;;;;2.93;2.47;;;;;;;9.50;76.96;99754.78;5044733;28;20559;-83
2023/01/08 02:44:45;;;;;;;3.90;2.17;;;;;;;9.48;77.03;99768.22;5047274;28;20195;-83
2023/01/08 02:47:19;;;;;;;4.83;2.53;;;;;;;9.49;76.98;99767.25;5037777;28;20206;-84
2023/01/08 02:49:51;;;;;;;1.87;1.67;;;;;;;9.51;77.13;99767.97;5049304;28;20734;-85
2023/01/08 02:52:19;;;;;;;2.80;2.10;;;;;;;9.53;77.41;99760.72;5043300;28;20209;-84
2023/01/08 02:54:48;;;;;;;2.53;2.23;;;;;;;9.54;77.93;99753.59;5039837;28;20589;-83
2023/01/08 02:57:18;;;;;;;3.40;2.40;;;;;;;9.55;77.30;99765.94;5046385;28;20208;-84
2023/01/08 02:59:47;;;;;;;2.97;2.17;;;;;;;9.58;77.81;99765.72;5035572;28;20604;-83
2023/01/08 03:02:14;;;;;;;2.60;2.40;;;;;;;9.59;77.72;99768.25;5045309;28;20209;-84
2023/01/08 03:04:49;;;;;;;2.93;2.10;;;;;;;9.64;77.29;99763.47;5040684;28;20206;-83
2023/01/08 03:07:15;;;;;;;2.93;2.60;;;;;;;9.63;77.64;99772.41;5045094;28;20213;-83
2023/01/08 03:09:42;;;;;;;3.70;2.27;;;;;;;9.64;77.81;99767.94;5037184;28;20226;-83
2023/01/08 03:12:15;;;;;;;2.83;2.50;;;;;;;9.65;77.49;99764.31;5047351;28;20218;-83
2023/01/08 03:14:47;;;;;;;3.17;2.27;;;;;;;9.71;77.81;99766.50;5046577;28;20214;-83
2023/01/08 03:17:19;;;;;;;2.40;2.00;;;;;;;9.69;77.37;99771.94;5038840;28;20590;-84
2023/01/08 03:19:50;;;;;;;2.83;2.33;;;;;;;9.71;77.52;99766.50;5044998;28;20226;-83
2023/01/08 03:22:17;;;;;;;4.97;2.47;;;;;;;9.70;77.84;99773.63;5043718;28;20217;-83
2023/01/08 03:24:48;;;;;;;4.60;2.50;;;;;;;9.72;77.78;99766.38;5044812;28;20215;-83
2023/01/08 03:27:17;;;;;;;2.97;1.93;;;;;;;9.75;77.36;99760.84;5044199;28;20229;-84
2023/01/08 03:29:49;;;;;;;2.67;2.27;;;;;;;9.75;77.67;99755.53;5041629;28;20242;-84
2023/01/08 03:32:17;;;;;;;2.77;2.20;;;;;;;9.79;77.40;99740.19;5042288;28;20208;-83
2023/01/08 03:34:46;;;;;;;3.10;2.10;;;;;;;9.79;77.79;99742.88;5045322;28;20242;-85
2023/01/08 03:37:15;;;;;;;2.83;2.23;;;;;;;9.83;77.36;99740.81;5045042;28;20212;-84
2023/01/08 03:39:46;;;;;;;3.63;2.40;;;;;;;9.86;77.84;99745.88;5043012;28;20230;-84
2023/01/08 03:42:14;;;;;;;3.67;2.50;;;;;;;9.82;77.52;99739.13;5039798;28;20210;-83
2023/01/08 03:44:41;;;;;;;2.57;2.37;;;;;;;9.81;77.50;99729.44;5042288;28;20807;-84
2023/01/08 03:47:10;;;;;;;2.03;1.90;;;;;;;9.82;77.68;99728.50;5044775;28;20208;-83
2023/01/08 03:49:38;;;;;;;3.07;2.27;;;;;;;9.85;77.66;99728.28;5040419;28;20249;-83
2023/01/08 03:52:05;;;;;;;2.33;2.10;;;;;;;9.82;77.67;99713.38;5041437;28;20573;-84
2023/01/08 03:54:33;;;;;;;3.37;2.37;;;;;;;9.83;77.81;99712.44;5046402;28;20230;-83
2023/01/08 03:56:59;;;;;;;2.27;2.07;;;;;;;9.84;78.10;99716.78;5049796;28;20198;-83
2023/01/08 03:59:26;;;;;;;4.17;2.30;;;;;;;9.83;78.11;99720.41;5046260;28;20229;-83
2023/01/08 04:01:52;;;;;;;2.13;1.93;;;;;;;9.83;78.16;99719.56;5039924;28;20209;-84
2023/01/08 04:04:20;;;;;;;2.80;1.90;;;;;;;9.80;78.00;99712.66;5041074;28;20206;-84
2023/01/08 04:06:46;;;;;;;2.90;2.20;;;;;;;9.81;78.47;99717.00;5043658;28;20201;-83
2023/01/08 04:09:13;;;;;;;3.10;1.83;;;;;;;9.80;78.06;99714.47;5044031;28;20681;-83
2023/01/08 04:11:39;;;;;;;2.20;2.00;;;;;;;9.80;78.38;99717.13;5040895;28;20582;-84
2023/01/08 04:14:08;;;;;;;3.43;2.00;;;;;;;9.80;78.30;99714.47;5041194;28;20206;-84
2023/01/08 04:16:34;;;;;;;2.10;1.90;;;;;;;9.80;78.67;99720.63;5049430;28;20217;-83
2023/01/08 04:19:01;;;;;;;2.90;2.40;;;;;;;9.78;78.56;99719.03;5043525;28;20238;-82
2023/01/08 04:21:29;;;;;;;2.40;2.20;;;;;;;9.75;78.71;99705.00;5045641;28;20214;-84
2023/01/08 04:23:55;;;;;;;3.47;2.10;;;;;;;9.74;78.33;99699.81;5044528;28;20210;-83
2023/01/08 04:26:22;;;;;;;3.43;2.27;;;;;;;9.71;78.24;99697.38;5040247;28;20204;-83
2023/01/08 04:28:48;;;;;;;4.13;2.77;;;;;;;9.68;78.75;99701.09;5036632;28;20202;-84
2023/01/08 04:31:14;;;;;;;2.30;2.00;;;;;;;9.64;78.36;99683.72;5038457;28;20209;-84
2023/01/08 04:33:41;;;;;;;3.37;2.43;;;;;;;9.61;78.57;99685.75;5040263;28;20213;-83
2023/01/08 04:36:08;;;;;;;2.80;2.33;;;;;;;9.57;78.47;99679.78;5044258;28;20228;-81
2023/01/08 04:38:36;;;;;;;2.73;2.30;;;;;;;9.54;78.52;99681.81;5047080;28;20267;-82
2023/01/08 04:41:03;;;;;;;2.60;2.40;;;;;;;9.51;78.91;99674.94;5045097;28;20208;-83
2023/01/08 04:43:30;;;;;;;3.00;2.70;;;;;;;9.49;78.77;99674.22;5044100;28;20220;-83
2023/01/08 04:45:58;;;;;;;3.57;2.90;;;;;;;9.46;79.45;99679.75;5046813;28;20208;-83
2023/01/08 04:48:24;;;;;;;3.80;2.60;;;;;;;9.44;79.48;99680.81;5048136;28;20202;-82
2023/01/08 04:50:51;;;;;;;2.90;2.50;;;;;;;9.41;79.39;99689.88;5043506;28;20237;-83
2023/01/08 04:53:17;;;;;;;2.43;2.10;;;;;;;9.39;80.14;99684.66;5044683;28;20210;-83
2023/01/08 04:55:45;;;;;;;3.00;2.30;;;;;;;9.35;79.75;99680.53;5045411;28;20225;-83
2023/01/08 04:58:12;;;;;;;2.50;2.20;;;;;;;9.33;80.28;99678.94;5046129;28;20201;-83
2023/01/08 05:00:38;;;;;;;2.93;2.60;;;;;;;9.30;80.12;99674.72;5038331;28;20229;-83
2023/01/08 05:03:05;;;;;;;3.60;2.60;;;;;;;9.27;80.64;99674.09;5040360;28;20202;-81
2023/01/08 05:05:33;;;;;;;3.63;2.13;;;;;;;9.26;80.55;99673.25;5047003;28;20660;-82
2023/01/08 05:07:59;;;;;;;4.20;3.07;;;;;;;9.25;81.01;99676.03;5039738;28;20205;-81
2023/01/08 05:10:26;;;;;;;2.53;2.33;;;;;;;9.22;81.07;99676.25;5042976;28;20688;-85
2023/01/08 05:12:58;;;;;;;3.23;2.80;;;;;;;9.21;81.44;99674.53;5048009;28;20563;-84
2023/01/08 05:15:24;;;;;;;2.93;2.63;;;;;;;9.18;81.55;99675.59;5042337;28;20218;-83
2023/01/08 05:17:58;;;;;;;3.23;2.67;;;;;;;9.18;81.50;99674.75;5042741;28;20201;-83
2023/01/08 05:20:24;;;;;;;3.83;2.93;;;;;;;9.17;81.65;99665.09;5042560;28;20226;-86
2023/01/08 05:22:51;;;;;;;3.03;2.57;;;;;;;9.16;82.30;99674.03;5044902;28;20217;-83
2023/01/08 05:25:17;;;;;;;3.87;3.00;;;;;;;9.17;82.06;99675.72;5041917;28;20198;-84
2023/01/08 05:27:43;;;;;;;4.83;3.00;;;;;;;9.15;82.27;99669.66;5046828;28;20206;-83
2023/01/08 05:30:13;;;;;;;3.60;3.10;;;;;;;9.16;82.60;99674.03;5038443;28;20356;-83
2023/01/08 05:32:39;;;;;;;3.50;2.30;;;;;;;9.14;82.64;99675.94;5044261;28;20660;-82
2023/01/08 05:35:07;;;;;;;4.50;2.80;;;;;;;9.13;83.34;99668.97;5045875;28;20229;-83
2023/01/08 05:37:34;;;;;;;3.30;3.00;;;;;;;9.13;83.22;99674.28;5045616;28;20209;-85
2023/01/08 05:40:00;;;;;;;3.73;3.07;;;;;;;9.10;83.39;99664.72;5041694;28;20233;-84
2023/01/08 05:42:27;;;;;;;3.10;2.80;;;;;;;9.09;83.48;99659.50;5039126;28;20201;-83
2023/01/08 05:44:53;;;;;;;4.10;3.17;;;;;;;9.10;84.33;99669.19;5036570;28;20206;-84
2023/01/08 05:47:21;;;;;;;3.47;3.17;;;;;;;9.09;84.48;99663.00;5042354;28;20205;-83
2023/01/08 05:49:48;;;;;;;3.73;2.83;;;;;;;9.08;84.96;99657.81;5045304;28;20225;-83
2023/01/08 05:52:14;;;;;;;3.10;2.77;;;;;;;9.08;85.15;99663.97;5039303;28;20198;-82
2023/01/08 05:54:40;;;;;;;3.47;2.90;;;;;;;9.09;85.33;99662.16;5038571;28;20209;-82
2023/01/08 05:57:07;;;;;;;3.53;2.90;;;;;;;9.08;85.71;99668.44;5035331;28;20236;-83
2023/01/08 05:59:33;;;;;;;4.67;3.30;;;;;;;9.05;85.32;99665.03;5043252;28;20236;-84
2023/01/08 06:02:00;;;;;;;2.93;2.63;;;;;;;9.07;86.10;99658.78;5044438;28;20244;-84
2023/01/08 06:04:28;;;;;;;4.23;3.30;;;;;;;9.05;86.05;99666.84;5033218;28;20210;-84
2023/01/08 06:06:54;;;;;;;3.67;2.73;;;;;;;9.04;86.15;99663.34;5040704;28;20232;-84
2023/01/08 06:09:21;;;;;;;3.17;2.73;;;;;;;9.03;86.82;99650.16;5035953;28;20281;-83
2023/01/08 06:11:47;;;;;;;9.93;3.43;;;;;;;9.02;87.00;99645.81;5038283;28;20619;-83
2023/01/08 06:14:14;;;;;;;4.53;3.00;;;;;;;9.02;87.12;99654.63;5035484;28;20557;-81
2023/01/08 06:16:42;;;;;;;3.67;3.03;;;;;;;9.02;87.49;99656.44;5046269;28;20221;-83
2023/01/08 06:19:09;;;;;;;4.87;3.60;;;;;;;9.00;87.72;99653.03;5041110;28;20245;-84
2023/01/08 06:21:37;;;;;;;4.40;3.57;;;;;;;8.99;88.01;99648.69;5042414;28;20684;-82
2023/01/08 06:24:04;;;;;;;4.47;3.00;;;;;;;8.99;88.54;99641.56;5044867;28;20710;-83
2023/01/08 06:26:30;;;;;;;3.87;3.50;;;;;;;8.99;88.92;99649.53;5049279;28;20216;-82
2023/01/08 06:28:57;;;;;;;3.70;3.30;;;;;;;8.98;88.79;99645.19;5052816;28;20221;-82
2023/01/08 06:31:23;;;;;;;4.63;3.50;;;;;;;8.99;89.12;99638.91;5047598;28;20218;-81
2023/01/08 06:33:50;;;;;;;4.00;3.07;;;;;;;8.98;89.09;99636.38;5046461;28;20205;-82
2023/01/08 06:36:16;;;;;;;3.23;2.70;;;;;;;8.98;89.79;99637.22;5045720;28;20226;-82
2023/01/08 06:38:44;;;;;;;4.73;3.73;;;;;;;8.98;90.13;99639.03;5043791;28;20571;-85
2023/01/08 06:41:11;;;;;;;4.13;2.73;;;;;;;9.01;90.06;99638.81;5046406;28;20213;-85
2023/01/08 06:43:38;;;;;;;5.67;3.80;;;;;;;9.01;90.21;99644.13;5040793;28;20209;-84
2023/01/08 06:46:05;;;;;;;5.93;3.97;;;;;;;9.01;90.25;99636.16;5045109;28;20209;-81
2023/01/08 06:48:32;;;;;;;6.40;3.40;;;;;;;9.01;90.88;99644.97;5043117;28;20224;-83
2023/01/08 06:50:59;;;;;;;3.50;3.20;;;;;;;9.01;90.55;99642.31;5041990;28;20304;-83
2023/01/08 06:53:26;;;;;;;4.30;3.20;;;;;;;9.00;91.17;99643.25;5050432;28;20715;-83
2023/01/08 06:55:55;;;;;;;4.63;3.50;;;;;;;8.98;91.42;99650.50;5048201;28;20228;-82
2023/01/08 06:58:22;;;;;;;3.87;3.03;;;;;;;9.01;91.10;99650.28;5046451;28;20275;-82
2023/01/08 07:00:49;;;;;;;5.90;3.03;;;;;;;9.01;91.26;99644.13;5047561;28;20228;-81
2023/01/08 07:03:15;;;;;;;3.57;2.97;;;;;;;9.01;91.93;99650.28;5051605;28;20596;-81
2023/01/08 07:05:42;;;;;;;5.17;3.13;;;;;;;9.03;92.04;99658.13;5047816;28;20206;-82
2023/01/08 07:08:11;;;;;;;5.87;3.90;;;;;;;9.02;92.63;99651.13;5049415;28;20214;-82
2023/01/08 07:10:37;;;;;;;4.37;3.00;;;;;;;9.03;92.33;99655.47;5047736;28;20225;-81
2023/01/08 07:13:06;;;;;;;3.37;2.90;;;;;;;9.02;92.62;99653.78;5047381;28;20210;-81
2023/01/08 07:15:33;;;;;;;4.57;3.00;;;;;;;9.00;92.73;99650.38;5040941;28;20197;-81
2023/01/08 07:17:59;;;;;;;3.23;2.93;;;;;;;9.02;94.04;99654.63;5048098;28;20219;-82
2023/01/08 07:20:26;;;;;;;3.83;2.93;;;;;;;9.02;93.96;99653.78;5043415;28;20629;-81
2023/01/08 07:22:52;;;;;;;2.70;2.50;;;;;;;9.02;93.79;99657.28;5039627;28;20602;-82
2023/01/08 07:25:19;;;;;;;4.13;2.93;;;;;;;9.03;94.54;99655.47;5045769;28;20198;-82
2023/01/08 07:27:45;;;;;;;3.50;2.57;;;;;;;9.03;94.44;99655.47;5043783;28;20213;-82
2023/01/08 07:30:14;;;;;;;3.23;2.70;;;;;;;9.02;95.25;99653.78;5038868;28;20252;-81
2023/01/08 07:32:40;;;;;;;4.47;2.80;;;;;;;9.02;95.44;99657.28;5044757;28;20209;-81
2023/01/08 07:35:07;;;;;;;2.73;2.53;;;;;;;9.03;95.42;99658.97;5041438;28;20210;-82
2023/01/08 07:37:34;;;;;;;4.70;3.20;;;;;;;9.03;95.52;99666.09;5045474;28;20229;-81
2023/01/08 07:40:00;;;;;;;4.10;3.10;;;;;;;9.02;96.08;99665.25;5038808;28;20241;-81
2023/01/08 07:42:27;;;;;;;6.00;3.90;;;;;;;9.00;96.73;99661.00;5043114;28;20272;-81
2023/01/08 07:44:53;;;;;;;3.67;2.97;;;;;;;8.99;96.43;99665.47;5041486;28;20199;-81
2023/01/08 07:47:21;;;;;;;3.10;2.80;;;;;;;9.00;96.84;99661.84;5045938;28;20654;-82
2023/01/08 07:49:47;;;;;;;3.43;2.47;;;;;;;9.01;97.59;99665.38;5043281;28;20612;-82
2023/01/08 07:52:14;;;;;;;2.70;2.40;;;;;;;9.01;97.81;99668.88;5045276;28;20206;-81
2023/01/08 07:54:41;;;;;;;2.40;2.20;;;;;;;9.01;97.83;99652.94;5045975;28;20668;-81
2023/01/08 07:57:07;;;;;;;2.80;2.60;;;;;;;9.02;97.61;99662.59;5037935;28;20229;-81
2023/01/08 07:59:34;;;;;;;2.87;2.40;;;;;;;9.02;97.54;99659.09;5039929;28;20228;-82
2023/01/08 08:02:00;;;;;;;3.17;2.37;;;;;;;9.00;98.45;99658.34;5042146;28;20213;-82
2023/01/08 08:04:28;;;;;;;4.37;3.60;;;;;;;9.00;98.75;99661.00;5041322;28;20813;-82
2023/01/08 08:06:55;;;;;;;2.83;2.40;;;;;;;8.99;98.63;99660.16;5046541;28;20213;-82
2023/01/08 08:09:21;;;;;;;3.67;2.67;;;;;;;8.99;98.41;99660.16;5043192;28;20236;-81
2023/01/08 08:11:48;;;;;;;5.83;5.33;;;;;;;8.99;99.01;99660.16;5043328;28;20201;-81
2023/01/08 08:14:14;;;;;;;7.00;5.93;;;;;;;8.99;99.01;99656.66;5039770;28;20202;-81
2023/01/08 08:16:41;;;;;;;7.87;5.80;;;;;;;9.00;98.85;99651.22;5040791;28;20217;-81
2023/01/08 08:19:07;;;;;;;7.27;5.60;;;;;;;9.02;99.19;99646.66;5047391;28;20596;-81
2023/01/08 08:21:35;;;;;;;4.70;3.47;;;;;;;9.02;99.52;99651.97;5048331;28;20221;-82
2023/01/08 08:24:01;;;;;;;8.30;5.43;;;;;;;9.01;100.00;99646.78;5039764;28;20580;-82
2023/01/08 08:26:28;;;;;;;3.27;2.47;;;;;;;9.01;99.97;99641.47;5042944;28;20208;-81
2023/01/08 08:28:54;;;;;;;2.37;2.17;;;;;;;9.01;100.00;99646.78;5038682;28;20205;-80
2023/01/08 08:31:21;;;;;;;2.17;1.97;;;;;;;9.02;100.00;99649.31;5047405;28;20208;-81
2023/01/08 08:33:47;;;;;;;2.00;1.87;;;;;;;9.02;99.94;99644.00;5046482;28;20202;-81
2023/01/08 08:36:14;;;;;;;2.23;1.70;;;;;;;9.02;100.00;99654.63;5039415;28;20218;-82
2023/01/08 08:38:41;;;;;;;2.27;2.07;;;;;;;9.03;100.00;99655.47;5042160;28;20217;-80
2023/01/08 08:41:08;;;;;;;1.90;1.70;;;;;;;9.02;100.00;99659.94;5042007;28;20206;-81
2023/01/08 08:43:34;;;;;;;2.67;2.10;;;;;;;9.02;100.00;99649.31;5045260;28;20208;-83
2023/01/08 08:46:01;;;;;;;2.63;2.23;;;;;;;9.02;100.00;99649.31;5041872;28;20209;-82
2023/01/08 08:48:27;;;;;;;3.10;2.33;;;;;;;9.02;100.00;99644.00;5042783;28;20204;-82
2023/01/08 08:50:54;;;;;;;2.60;2.40;;;;;;;9.03;100.00;99644.84;5042564;28;20225;-82
2023/01/08 08:53:20;;;;;;;2.20;2.00;;;;;;;9.03;100.00;99632.44;5039617;28;20206;-81
2023/01/08 08:55:48;;;;;;;2.60;2.05;;;;;;;9.03;100.00;99634.22;5043497;28;20202;-81
2023/01/08 08:58:14;;;;;;;3.40;2.77;;;;;;;9.03;100.00;99621.81;5040435;28;20441;-80
2023/01/08 09:00:43;;;;;;;2.90;2.60;;;;;;;9.03;100.00;99615.66;5043580;28;20225;-81
2023/01/08 09:03:12;;;;;;;3.00;2.70;;;;;;;9.03;100.00;99605.88;5042626;28;20220;-83
2023/01/08 09:05:39;;;;;;;2.83;2.30;;;;;;;9.03;100.00;99611.19;5046674;28;20236;-81
2023/01/08 09:08:06;;;;;;;3.00;2.30;;;;;;;9.03;100.00;99608.53;5045166;28;20210;-82
2023/01/08 09:10:32;;;;;;;2.93;2.63;;;;;;;9.07;100.00;99603.00;5045384;28;20232;-82
2023/01/08 09:13:00;;;;;;;2.47;2.27;;;;;;;9.06;100.00;99615.41;5044115;28;20205;-82
2023/01/08 09:15:27;;;;;;;3.57;2.67;;;;;;;9.08;100.00;99620.63;5041818;28;20199;-82
2023/01/08 09:17:54;;;;;;;2.07;1.90;;;;;;;9.08;100.00;99610.84;5039481;28;20714;-83
2023/01/08 09:20:20;;;;;;;2.27;2.00;;;;;;;9.11;100.00;99612.44;5040355;28;20225;-83
2023/01/08 09:22:47;;;;;;;2.50;2.30;;;;;;;9.13;100.00;99603.41;5041794;28;20240;-83
2023/01/08 09:25:14;;;;;;;2.30;2.10;;;;;;;9.15;100.00;99604.09;5044350;28;20205;-83
2023/01/08 09:27:40;;;;;;;2.57;2.37;;;;;;;9.18;100.00;99608.34;5038306;28;20209;-81
2023/01/08 09:30:09;;;;;;;2.90;2.37;;;;;;;9.21;100.00;99614.28;5040960;28;20226;-81
2023/01/08 09:32:37;;;;;;;4.63;2.80;;;;;;;9.26;100.00;99613.94;5041912;28;20582;-83
2023/01/08 09:35:03;;;;;;;4.13;3.20;;;;;;;9.29;100.00;99613.72;5041274;28;20213;-82
2023/01/08 09:37:30;;;;;;;5.23;4.63;;;;;;;9.30;100.00;99613.63;5045332;28;20230;-82
2023/01/08 09:39:56;;;;;;;4.17;3.03;;;;;;;9.34;100.00;99611.56;5045653;28;20286;-83
2023/01/08 09:42:27;;;;;;;4.77;3.30;;;;;;;9.33;100.00;99607.19;5041202;28;20232;-83
2023/01/08 09:44:56;;;;;;;4.77;4.13;;;;;;;9.36;100.00;99606.97;5036939;28;20199;-82
2023/01/08 09:47:29;;;;;;;6.33;4.50;;;;;;;9.36;100.00;99604.31;5044209;28;20205;-81
2023/01/08 09:49:59;;;;;;;19.17;8.77;;;;;;;9.36;100.00;99614.94;5043010;28;20221;-82
2023/01/08 09:52:26;;;;;;;7.97;5.33;;;;;;;9.39;100.00;99612.91;5046156;28;20198;-82
2023/01/08 09:54:53;;;;;;;3.63;2.80;;;;;;;9.40;100.00;99608.44;5045392;28;20217;-82
2023/01/08 09:57:22;;;;;;;1.77;1.33;;;;;;;9.38;100.00;99607.72;5051348;28;20229;-84
2023/01/08 09:59:49;;;;;;;1.37;1.20;;;;;;;9.37;100.00;99603.34;5053218;28;20900;-81
2023/01/08 10:02:27;;;;;;;3.77;2.27;;;;;;;9.40;100.00;99611.09;5046406;28;20197;-83
2023/01/08 10:04:57;;;;;;;2.83;2.27;;;;;;;9.40;99.63;99609.28;5044314;28;20206;-82
2023/01/08 10:07:25;;;;;;;3.63;2.33;;;;;;;9.40;99.30;99605.78;5048545;28;20206;-83
2023/01/08 10:09:53;;;;;;;3.63;2.37;;;;;;;9.42;98.92;99609.19;5047557;28;20243;-82
2023/01/08 10:12:27;;;;;;;3.27;2.20;;;;;;;9.42;99.07;99608.34;5045968;28;20213;-83
2023/01/08 10:15:00;;;;;;;12.07;6.03;;;;;;;9.42;98.78;99603.88;5050584;28;20215;-83
2023/01/08 10:17:34;;;;;;;23.03;11.97;;;;;;;9.42;98.64;99606.53;5044078;28;20237;-81
2023/01/08 10:20:01;;;;;;;7.27;4.70;;;;;;;9.44;98.08;99606.41;5047377;28;20242;-81
2023/01/08 10:22:32;;;;;;;3.23;1.70;;;;;;;9.46;97.79;99604.50;5044021;28;20217;-82
2023/01/08 10:25:06;;;;;;;1.87;1.70;;;;;;;9.47;97.89;99603.53;5050292;28;20228;-84
2023/01/08 10:27:36;;;;;;;3.93;3.53;;;;;;;9.44;97.68;99596.63;5043888;28;20195;-83
2023/01/08 10:30:05;;;;;;;4.67;3.70;;;;;;;9.45;97.73;99585.03;5046213;28;20234;-84
2023/01/08 10:32:36;;;;;;;1.67;1.30;;;;;;;9.45;97.53;99593.00;5043714;28;20206;-85
2023/01/08 10:35:05;;;;;;;1.37;1.27;;;;;;;9.46;96.95;99586.75;5050392;28;20205;-83
2023/01/08 10:37:38;;;;;;;1.13;1.00;;;;;;;9.50;96.95;99590.84;5049297;28;20225;-83
2023/01/08 10:40:17;;;;;;;1.57;1.20;;;;;;;9.51;96.99;99602.31;5044841;28;20229;-83
2023/01/08 10:42:46;;;;;;;1.80;1.33;;;;;;;9.53;96.96;99603.91;5046354;28;20212;-83
2023/01/08 10:45:21;;;;;;;1.10;1.00;;;;;;;9.57;96.47;99593.88;5046912;28;20211;-84
2023/01/08 10:47:52;;;;;;;1.63;1.10;;;;;;;9.57;95.89;99602.72;5045423;28;20201;-84
2023/01/08 10:50:22;;;;;;;0.83;0.83;;;;;;;9.58;96.22;99587.59;5049729;28;20234;-82
2023/01/08 10:52:53;;;;;;;0.70;0.70;;;;;;;9.59;96.26;99589.31;5049523;28;20614;-82
2023/01/08 10:55:24;;;;;;;1.10;1.00;;;;;;;9.60;95.98;99586.53;5052154;28;20213;-83
2023/01/08 10:57:56;;;;;;;0.80;0.80;;;;;;;9.63;95.40;99586.31;5044892;28;20237;-81
2023/01/08 11:00:24;;;;;;;0.97;0.80;;;;;;;9.63;95.52;99588.13;5047730;28;20248;-83
2023/01/08 11:02:52;;;;;;;6.97;4.40;;;;;;;9.62;95.40;99584.59;5047352;28;20209;-83
2023/01/08 11:05:19;;;;;;;1.30;1.17;;;;;;;9.64;95.23;99582.69;5051464;28;20205;-82
2023/01/08 11:07:55;;;;;;;2.47;2.27;;;;;;;9.66;94.95;99572.78;5055384;28;20224;-84
2023/01/08 11:10:23;;;;;;;1.07;0.90;;;;;;;9.69;94.41;99558.38;5048086;28;20570;-83
2023/01/08 11:12:55;;;;;;;0.90;0.90;;;;;;;9.69;93.99;99534.44;5042993;28;21601;-83
2023/01/08 11:15:30;;;;;;;1.93;0.77;;;;;;;9.71;93.98;99540.50;5046112;28;20198;-83
2023/01/08 11:18:06;;;;;;;1.27;1.10;;;;;;;9.74;94.29;99546.44;5046693;28;20260;-83
2023/01/08 11:20:33;;;;;;;1.37;1.27;;;;;;;9.77;93.68;99541.84;5045312;28;20225;-83
2023/01/08 11:23:13;;;;;;;1.27;1.17;;;;;;;9.81;94.20;99544.16;5047920;28;20743;-81
2023/01/08 11:25:42;;;;;;;1.47;1.10;;;;;;;9.83;93.72;99534.25;5050862;28;20205;-81
2023/01/08 11:28:15;;;;;;;0.70;0.70;;;;;;;9.84;94.05;99532.44;5051770;28;20912;-83
2023/01/08 11:30:46;;;;;;;0.90;0.70;;;;;;;9.84;93.55;99529.78;5048118;28;20229;-82
2023/01/08 11:33:20;;;;;;;1.23;0.70;;;;;;;9.87;93.59;99524.19;5051548;28;20209;-82
2023/01/08 11:35:50;;;;;;;0.93;0.70;;;;;;;9.84;93.07;99525.31;5052950;28;20208;-83
2023/01/08 11:38:17;;;;;;;0.93;0.80;;;;;;;9.88;93.18;99520.56;5052591;28;20233;-82
2023/01/08 11:40:48;;;;;;;1.17;0.50;;;;;;;9.90;92.78;99518.66;5055622;28;20229;-82
2023/01/08 11:43:23;;;;;;;1.00;0.70;;;;;;;9.95;91.95;99514.66;5055758;28;20202;-83
2023/01/08 11:46:01;;;;;;;1.17;1.00;;;;;;;9.96;91.32;99508.38;5051015;28;20197;-83